Time;durP1;ratioP1;P1;durP2;ratioP2;P2;SDS_P1;SDS_P2;PMS_P1;PMS_P2;Temp;Humidity;BMP_temperature;BMP_pressure;BME280_temperature;BME280_humidity;BME280_pressure;Samples;Min_cycle;Max_cycle;Signal;HPM_P1;HPM_P2
2022/12/16 00:01:18;;;;;;;;;;;;;;;9.23;69.82;99364.31;4980402;28;19918;-87
2022/12/16 00:04:02;;;;;;;;;;;;;;;9.18;69.05;99366.47;4947435;28;20396;-86
2022/12/16 00:06:46;;;;;;;;;;;;;;;9.13;69.00;99356.63;4947623;28;19918;-87
2022/12/16 00:09:31;;;;;;;;;;;;;;;9.07;69.17;99357.97;4966511;28;19981;-87
2022/12/16 00:12:15;;;;;;;;;;;;;;;9.10;69.56;99353.78;4974404;28;20403;-86
2022/12/16 00:15:00;;;;;;;;;;;;;;;9.06;69.51;99350.97;4966644;28;19922;-85
2022/12/16 00:17:44;;;;;;;;;;;;;;;9.04;68.93;99349.75;4966121;28;19918;-86
2022/12/16 00:20:29;;;;;;;;;;;;;;;9.07;68.63;99347.13;4955246;29;19918;-86
2022/12/16 00:23:22;;;;;;;;;;;;;;;8.99;68.67;99351.53;4967716;28;20402;-86
2022/12/16 00:26:07;;;;;;;;;;;;;;;8.97;69.21;99347.56;4968317;28;19918;-85
2022/12/16 00:28:51;;;;;;;;;;;;;;;8.97;68.87;99344.88;4963053;28;19918;-87
2022/12/16 00:31:35;;;;;;;;;;;;;;;8.96;68.96;99351.41;4963448;28;19922;-86
2022/12/16 00:34:23;;;;;;;;;;;;;;;8.97;69.09;99364.63;4972685;28;19918;-86
2022/12/16 00:37:07;;;;;;;;;;;;;;;8.91;68.68;99357.06;4960588;28;19918;-83
2022/12/16 00:39:52;;;;;;;;;;;;;;;8.90;69.28;99364.38;4961329;28;19918;-83
2022/12/16 00:42:36;;;;;;;;;;;;;;;8.95;68.99;99360.66;4983322;28;19918;-84
2022/12/16 00:45:20;;;;;;;;;;;;;;;8.94;68.66;99359.06;5000814;28;19917;-82
2022/12/16 00:48:06;;;;;;;;;;;;;;;8.93;69.05;99354.81;4975528;28;19939;-83
2022/12/16 00:50:51;;;;;;;;;;;;;;;9.05;68.83;99354.00;4966837;28;19922;-82
2022/12/16 00:53:37;;;;;;;;;;;;;;;9.05;68.97;99360.22;4960223;28;20387;-84
2022/12/16 00:56:21;;;;;;;;;;;;;;;9.06;69.15;99356.38;4966220;28;19918;-84
2022/12/16 00:59:06;;;;;;;;;;;;;;;9.06;68.62;99356.38;4973087;28;19918;-83
2022/12/16 01:01:50;;;;;;;;;;;;;;;9.06;68.96;99366.44;4978037;28;19918;-84
2022/12/16 01:04:34;;;;;;;;;;;;;;;9.04;69.66;99364.06;4985924;28;19918;-84
2022/12/16 01:07:19;;;;;;;;;;;;;;;9.05;69.86;99365.66;4963586;28;19918;-84
2022/12/16 01:10:05;;;;;;;;;;;;;;;9.06;70.46;99374.56;4979865;28;19926;-86
2022/12/16 01:12:49;;;;;;;;;;;;;;;9.08;70.51;99372.31;4962592;28;20295;-86
2022/12/16 01:15:36;;;;;;;;;;;;;;;9.11;71.11;99369.72;4980249;28;19921;-86
2022/12/16 01:18:20;;;;;;;;;;;;;;;9.09;70.83;99363.88;4966362;28;19918;-86
2022/12/16 01:21:06;;;;;;;;;;;;;;;9.11;70.44;99363.50;4946903;29;19918;-86
2022/12/16 01:23:51;;;;;;;;;;;;;;;9.07;70.45;99362.59;4953528;28;19919;-86
2022/12/16 01:26:36;;;;;;;;;;;;;;;9.04;71.02;99361.34;4970227;28;19918;-85
2022/12/16 01:29:20;;;;;;;;;;;;;;;9.00;70.44;99361.25;4975961;28;20466;-86
2022/12/16 01:32:05;;;;;;;;;;;;;;;9.09;70.75;99358.44;4975861;28;19930;-85
2022/12/16 01:34:53;;;;;;;;;;;;;;;9.11;70.22;99353.44;4965726;28;20383;-85
2022/12/16 01:37:38;;;;;;;;;;;;;;;9.13;69.75;99356.63;4965620;28;20391;-85
2022/12/16 01:40:23;;;;;;;;;;;;;;;9.09;69.53;99368.50;4965302;28;19918;-85
2022/12/16 01:43:12;;;;;;;;;;;;;;;9.18;69.89;99364.53;4973395;28;19918;-85
2022/12/16 01:46:08;;;;;;;;;;;;;;;9.26;69.23;99357.41;4965667;28;20291;-85
2022/12/16 01:48:57;;;;;;;;;;;;;;;9.30;69.79;99367.22;4989781;28;19921;-85
2022/12/16 01:51:45;;;;;;;;;;;;;;;9.25;69.16;99364.75;4976973;28;19922;-84
2022/12/16 01:54:38;;;;;;;;;;;;;;;9.30;69.39;99361.81;4966148;28;19918;-88
2022/12/16 01:57:26;;;;;;;;;;;;;;;9.25;69.70;99358.53;4966464;28;19918;-89
2022/12/16 02:00:11;;;;;;;;;;;;;;;9.26;70.26;99362.84;4973193;28;19918;-88
2022/12/16 02:02:59;;;;;;;;;;;;;;;9.22;69.51;99357.31;4975199;28;19918;-88
2022/12/16 02:05:45;;;;;;;;;;;;;;;9.20;69.42;99364.19;4979864;28;19926;-88
2022/12/16 02:08:30;;;;;;;;;;;;;;;9.19;70.03;99368.03;4972831;28;19918;-90
2022/12/16 02:11:35;;;;;;;;;;;;;;;9.11;69.89;99348.03;4979538;28;19922;-89
2022/12/16 02:14:19;;;;;;;;;;;;;;;9.07;69.99;99339.00;4977512;28;19918;-90
2022/12/16 02:17:03;;;;;;;;;;;;;;;9.08;70.16;99343.28;4977245;28;19926;-90
2022/12/16 02:20:07;;;;;;;;;;;;;;;9.08;70.04;99350.63;4969440;28;19918;-90
2022/12/16 02:23:19;;;;;;;;;;;;;;;9.05;71.10;99338.53;4977302;28;19918;-89
2022/12/16 02:26:23;;;;;;;;;;;;;;;9.14;70.90;99346.56;4976845;28;19922;-85
2022/12/16 02:29:26;;;;;;;;;;;;;;;9.07;70.18;99340.91;4968283;28;19918;-85
2022/12/16 02:32:25;;;;;;;;;;;;;;;9.05;70.29;99356.72;4966214;28;20295;-87
2022/12/16 02:35:28;;;;;;;;;;;;;;;9.07;70.32;99341.72;4981856;28;19918;-87
2022/12/16 02:38:31;;;;;;;;;;;;;;;9.07;71.12;99347.13;4969038;28;19918;-87
2022/12/16 02:41:19;;;;;;;;;;;;;;;9.03;70.71;99346.22;4976421;28;19926;-85
2022/12/16 02:44:05;;;;;;;;;;;;;;;9.03;70.33;99367.91;4976380;28;19922;-85
2022/12/16 02:46:53;;;;;;;;;;;;;;;9.01;70.52;99375.59;4981878;28;19917;-85
2022/12/16 02:49:43;;;;;;;;;;;;;;;9.06;70.42;99394.34;4967972;28;20558;-84
2022/12/16 02:52:29;;;;;;;;;;;;;;;9.06;69.97;99388.13;4978999;28;20391;-85
2022/12/16 02:55:14;;;;;;;;;;;;;;;9.08;70.67;99400.25;4968235;28;19925;-86
2022/12/16 02:58:05;;;;;;;;;;;;;;;9.09;70.89;99401.03;4981795;28;20380;-85
2022/12/16 03:01:08;;;;;;;;;;;;;;;9.11;70.03;99388.72;4981956;28;20383;-86
2022/12/16 03:03:56;;;;;;;;;;;;;;;9.02;69.36;99390.72;4975200;28;19922;-87
2022/12/16 03:06:43;;;;;;;;;;;;;;;9.09;69.96;99382.84;4981761;28;19922;-87
2022/12/16 03:09:28;;;;;;;;;;;;;;;9.13;69.95;99372.09;4976582;28;19918;-87
2022/12/16 03:12:15;;;;;;;;;;;;;;;9.08;69.31;99383.19;4975293;28;19922;-86
2022/12/16 03:15:00;;;;;;;;;;;;;;;8.93;69.58;99392.75;4979556;28;20323;-86
2022/12/16 03:17:47;;;;;;;;;;;;;;;8.94;70.46;99399.75;4968168;28;19918;-87
2022/12/16 03:20:34;;;;;;;;;;;;;;;8.95;69.42;99399.41;4981393;28;19918;-86
2022/12/16 03:23:21;;;;;;;;;;;;;;;8.98;70.03;99403.38;4975860;28;19918;-87
2022/12/16 03:26:09;;;;;;;;;;;;;;;9.01;69.08;99400.78;4981700;28;19918;-86
2022/12/16 03:29:02;;;;;;;;;;;;;;;8.95;69.25;99404.84;4975106;28;20400;-86
2022/12/16 03:31:58;;;;;;;;;;;;;;;9.06;69.03;99399.78;4975380;28;19922;-86
2022/12/16 03:34:50;;;;;;;;;;;;;;;9.08;69.01;99397.53;4967768;28;19918;-86
2022/12/16 03:37:36;;;;;;;;;;;;;;;9.08;70.02;99392.09;4981273;28;19918;-87
2022/12/16 03:40:22;;;;;;;;;;;;;;;8.96;68.55;99371.19;4966417;28;19918;-86
2022/12/16 03:43:07;;;;;;;;;;;;;;;8.89;68.66;99376.34;4958918;28;19918;-86
2022/12/16 03:45:53;;;;;;;;;;;;;;;8.82;68.57;99368.00;4967719;28;19918;-87
2022/12/16 03:48:44;;;;;;;;;;;;;;;8.74;69.00;99376.22;4981305;28;19918;-85
2022/12/16 03:51:28;;;;;;;;;;;;;;;8.67;69.56;99382.19;4980759;28;19922;-86
2022/12/16 03:54:13;;;;;;;;;;;;;;;8.70;70.33;99395.06;4975716;28;19918;-85
2022/12/16 03:56:57;;;;;;;;;;;;;;;8.72;69.89;99384.69;4962147;28;19918;-88
2022/12/16 03:59:42;;;;;;;;;;;;;;;8.80;70.39;99383.00;4961302;28;19919;-87
2022/12/16 04:02:27;;;;;;;;;;;;;;;8.71;70.44;99393.16;4972076;28;20387;-85
2022/12/16 04:05:12;;;;;;;;;;;;;;;8.77;69.23;99397.25;4958612;28;19918;-85
2022/12/16 04:07:57;;;;;;;;;;;;;;;8.73;69.68;99391.72;4961758;28;19919;-85
2022/12/16 04:25:58;;;;;;;;;;;;;;;8.83;70.78;99418.38;4961028;28;20384;-83
2022/12/16 04:28:42;;;;;;;;;;;;;;;8.79;68.65;99416.66;4956172;28;19918;-84
2022/12/16 04:31:27;;;;;;;;;;;;;;;8.77;68.52;99403.44;4954223;28;19923;-85
2022/12/16 04:34:24;;;;;;;;;;;;;;;8.77;68.87;99392.63;4964761;28;19918;-84
